createdAt,value
2022-10-05T00:02:36.191Z,14.00
2022-10-05T00:05:38.121Z,14.00
2022-10-05T00:08:40.163Z,14.00
2022-10-05T00:11:42.321Z,14.10
2022-10-05T00:14:46.334Z,14.10
2022-10-05T00:17:49.072Z,14.00
2022-10-05T00:20:52.057Z,13.90
2022-10-05T00:23:57.676Z,14.00
2022-10-05T00:27:01.675Z,14.00
2022-10-05T00:30:14.923Z,14.00
2022-10-05T00:33:16.600Z,13.90
2022-10-05T00:36:18.731Z,13.90
2022-10-05T00:39:20.762Z,13.90
2022-10-05T00:42:28.441Z,13.90
2022-10-05T00:45:37.664Z,13.90
2022-10-05T00:48:54.068Z,13.90
2022-10-05T00:52:27.576Z,13.80
2022-10-05T00:55:53.638Z,13.90
2022-10-05T00:59:23.223Z,13.90
2022-10-05T01:02:38.901Z,13.80
2022-10-05T01:06:06.606Z,13.80
2022-10-05T01:09:26.907Z,13.90
2022-10-05T01:13:12.601Z,13.80
2022-10-05T01:16:17.375Z,13.80
2022-10-05T01:19:37.673Z,13.90
2022-10-05T01:23:13.179Z,13.90
2022-10-05T01:26:39.161Z,13.90
2022-10-05T01:30:05.073Z,13.90
2022-10-05T01:33:22.808Z,13.90
2022-10-05T01:36:51.049Z,13.90
2022-10-05T01:39:58.408Z,13.90
2022-10-05T01:43:17.005Z,13.90
2022-10-05T01:46:37.484Z,13.90
2022-10-05T01:49:41.990Z,14.00
2022-10-05T01:53:07.848Z,14.00
2022-10-05T01:56:36.406Z,14.10
2022-10-05T01:59:53.184Z,14.10
2022-10-05T02:03:10.499Z,14.10
2022-10-05T02:06:20.114Z,14.10
2022-10-05T02:09:28.434Z,14.10
2022-10-05T02:12:37.343Z,14.10
2022-10-05T02:15:45.701Z,14.10
2022-10-05T02:18:52.943Z,14.10
2022-10-05T02:22:07.155Z,14.20
2022-10-05T02:25:22.393Z,14.20
2022-10-05T02:28:42.285Z,14.20
2022-10-05T02:31:54.541Z,14.20
2022-10-05T02:35:06.918Z,14.20
2022-10-05T02:38:25.528Z,14.20
2022-10-05T02:41:35.296Z,14.10
2022-10-05T02:44:52.866Z,14.20
2022-10-05T02:48:20.742Z,14.20
2022-10-05T02:51:46.931Z,14.20
2022-10-05T02:54:51.709Z,14.20
2022-10-05T02:58:12.094Z,14.20
2022-10-05T03:01:21.871Z,14.20
2022-10-05T03:04:33.098Z,14.20
2022-10-05T03:07:58.629Z,14.20
2022-10-05T03:11:13.511Z,14.20
2022-10-05T03:14:37.745Z,14.20
2022-10-05T03:18:00.751Z,14.20
2022-10-05T03:21:02.649Z,14.10
2022-10-05T03:24:18.275Z,14.10
2022-10-05T03:27:33.480Z,14.10
2022-10-05T03:30:59.405Z,14.10
2022-10-05T03:34:04.492Z,14.10
2022-10-05T03:37:25.150Z,14.10
2022-10-05T03:40:33.221Z,14.10
2022-10-05T03:43:54.474Z,14.10
2022-10-05T03:47:25.338Z,14.10
2022-10-05T03:50:50.956Z,14.00
2022-10-05T03:54:20.759Z,14.00
2022-10-05T03:57:27.463Z,14.10
2022-10-05T04:00:31.978Z,14.10
2022-10-05T04:03:42.163Z,14.10
2022-10-05T04:06:50.655Z,14.10
2022-10-05T04:09:53.334Z,14.10
2022-10-05T04:13:23.817Z,14.10
2022-10-05T04:16:40.127Z,14.10
2022-10-05T04:20:00.399Z,14.00
2022-10-05T04:23:11.180Z,14.10
2022-10-05T04:26:46.003Z,14.10
2022-10-05T04:30:11.783Z,14.10
2022-10-05T04:33:19.277Z,14.10
2022-10-05T04:36:29.787Z,14.20
2022-10-05T04:39:47.270Z,14.20
2022-10-05T04:43:15.350Z,14.20
2022-10-05T04:46:33.824Z,14.30
2022-10-05T04:50:03.028Z,14.30
2022-10-05T04:53:26.928Z,14.30
2022-10-05T04:56:37.742Z,14.30
2022-10-05T04:59:55.821Z,14.30
2022-10-05T05:03:09.189Z,14.40
2022-10-05T05:06:29.231Z,14.30
2022-10-05T05:10:15.334Z,14.30
2022-10-05T05:13:34.871Z,14.40
2022-10-05T05:16:43.879Z,14.40
2022-10-05T05:20:30.283Z,14.40
2022-10-05T05:23:41.605Z,14.40
2022-10-05T05:26:52.088Z,14.40
2022-10-05T05:30:06.334Z,14.40
2022-10-05T05:33:25.045Z,14.50
2022-10-05T05:37:07.852Z,14.50
2022-10-05T05:40:16.405Z,14.50
2022-10-05T05:43:53.089Z,14.60
2022-10-05T05:47:03.893Z,14.60
2022-10-05T05:50:07.820Z,14.60
2022-10-05T05:53:22.101Z,14.50
2022-10-05T05:56:37.533Z,14.50
2022-10-05T06:00:05.630Z,14.50
2022-10-05T06:03:16.908Z,14.50
2022-10-05T06:06:22.192Z,14.50
2022-10-05T06:09:35.534Z,14.60
2022-10-05T06:12:45.872Z,14.60
2022-10-05T06:15:56.373Z,14.60
2022-10-05T06:19:14.598Z,14.60
2022-10-05T06:22:39.781Z,14.70
2022-10-05T06:25:56.814Z,14.60
2022-10-05T06:29:04.133Z,14.60
2022-10-05T06:32:43.020Z,14.70
2022-10-05T06:36:14.638Z,14.70
2022-10-05T06:39:40.243Z,14.70
2022-10-05T06:43:16.601Z,14.70
2022-10-05T06:46:55.695Z,14.60
2022-10-05T06:50:09.861Z,14.70
2022-10-05T06:53:20.279Z,14.80
2022-10-05T06:56:31.911Z,14.70
2022-10-05T06:59:46.929Z,14.70
2022-10-05T07:03:30.042Z,14.80
2022-10-05T07:06:40.439Z,14.80
2022-10-05T07:09:57.351Z,14.80
2022-10-05T07:13:11.653Z,14.80
2022-10-05T07:16:45.427Z,14.90
2022-10-05T07:20:09.048Z,14.90
2022-10-05T07:23:22.100Z,14.90
2022-10-05T07:26:24.017Z,15.00
2022-10-05T07:30:03.392Z,15.00
2022-10-05T07:33:24.199Z,15.10
2022-10-05T07:36:44.698Z,15.10
2022-10-05T07:40:15.310Z,15.10
2022-10-05T07:44:00.969Z,15.20
2022-10-05T07:47:17.457Z,15.30
2022-10-05T07:50:28.350Z,15.40
2022-10-05T07:53:36.676Z,15.50
2022-10-05T07:56:41.435Z,15.60
2022-10-05T08:00:22.725Z,15.60
2022-10-05T08:03:43.136Z,15.70
2022-10-05T08:06:49.040Z,15.80
2022-10-05T08:10:00.540Z,15.80
2022-10-05T08:13:22.695Z,15.80
2022-10-05T08:16:30.574Z,15.80
2022-10-05T08:19:32.328Z,15.90
2022-10-05T08:22:44.128Z,15.90
2022-10-05T08:26:15.298Z,15.90
2022-10-05T08:29:34.429Z,15.90
2022-10-05T08:32:50.357Z,16.00
2022-10-05T08:36:10.730Z,16.00
2022-10-05T08:39:19.247Z,16.00
2022-10-05T08:42:49.875Z,16.00
2022-10-05T08:46:06.950Z,16.10
2022-10-05T08:49:55.958Z,16.10
2022-10-05T08:53:19.094Z,16.10
2022-10-05T08:56:29.817Z,16.10
2022-10-05T08:59:59.260Z,16.20
2022-10-05T09:03:34.477Z,16.20
2022-10-05T09:07:01.428Z,16.20
2022-10-05T09:10:18.104Z,16.30
2022-10-05T09:13:43.499Z,16.30
2022-10-05T09:17:16.523Z,16.40
2022-10-05T09:20:24.838Z,16.40
2022-10-05T09:23:44.391Z,16.40
2022-10-05T09:27:00.634Z,16.40
2022-10-05T09:30:18.566Z,16.40
2022-10-05T09:33:35.485Z,16.50
2022-10-05T09:37:02.115Z,16.60
2022-10-05T09:40:41.771Z,16.60
2022-10-05T09:43:43.480Z,16.70
2022-10-05T09:47:26.136Z,16.80
2022-10-05T09:50:33.779Z,16.90
2022-10-05T09:54:08.394Z,17.00
2022-10-05T09:57:43.801Z,17.10
2022-10-05T10:01:15.684Z,17.30
2022-10-05T10:04:43.614Z,17.40
2022-10-05T10:07:50.217Z,17.60
2022-10-05T10:11:15.881Z,17.60
2022-10-05T10:15:00.519Z,17.70
2022-10-05T10:18:26.766Z,17.70
2022-10-05T10:21:47.130Z,17.80
2022-10-05T10:25:19.457Z,17.80
2022-10-05T10:28:38.848Z,17.80
2022-10-05T10:32:15.235Z,18.10
2022-10-05T10:35:37.722Z,18.20
2022-10-05T10:38:40.595Z,18.40
2022-10-05T10:41:54.558Z,18.50
2022-10-05T10:44:59.379Z,18.60
2022-10-05T10:48:45.003Z,18.70
2022-10-05T10:52:09.364Z,18.80
2022-10-05T10:55:20.003Z,18.90
2022-10-05T10:58:37.862Z,18.90
2022-10-05T11:02:05.956Z,19.00
2022-10-05T11:05:48.899Z,19.10
2022-10-05T11:08:56.657Z,19.10
2022-10-05T11:12:35.494Z,19.20
2022-10-05T11:20:02.601Z,19.40
2022-10-05T11:23:08.520Z,19.40
2022-10-05T11:26:35.631Z,19.50
2022-10-05T11:30:14.348Z,19.50
2022-10-05T11:33:57.832Z,19.60
2022-10-05T11:37:29.852Z,19.70
2022-10-05T11:41:08.330Z,19.80
2022-10-05T11:44:47.005Z,19.80
2022-10-05T11:48:04.658Z,19.90
2022-10-05T11:51:14.533Z,19.90
2022-10-05T11:54:58.575Z,20.00
2022-10-05T11:58:26.300Z,20.10
2022-10-05T12:01:34.749Z,20.10
2022-10-05T12:05:14.483Z,20.20
2022-10-05T12:08:42.188Z,20.20
2022-10-05T12:12:27.190Z,20.20
2022-10-05T12:15:38.720Z,20.20
2022-10-05T12:18:50.109Z,20.20
2022-10-05T12:22:15.528Z,20.30
2022-10-05T12:25:57.508Z,20.30
2022-10-05T12:29:20.041Z,20.30
2022-10-05T12:32:23.834Z,20.40
2022-10-05T12:35:47.308Z,20.50
2022-10-05T12:39:10.101Z,20.50
2022-10-05T12:42:50.432Z,20.50
2022-10-05T12:46:10.750Z,20.60
2022-10-05T12:49:37.805Z,20.60
2022-10-05T12:53:05.887Z,20.60
2022-10-05T12:56:07.965Z,20.70
2022-10-05T12:59:18.382Z,20.70
2022-10-05T13:02:44.866Z,20.70
2022-10-05T13:05:46.490Z,20.80
2022-10-05T13:09:20.867Z,20.80
2022-10-05T13:12:39.179Z,20.80
2022-10-05T13:15:49.861Z,20.90
2022-10-05T13:19:06.590Z,20.80
2022-10-05T13:22:17.000Z,20.90
2022-10-05T13:25:21.578Z,20.90
2022-10-05T13:28:54.032Z,20.90
2022-10-05T13:32:36.038Z,20.90
2022-10-05T13:36:11.249Z,20.90
2022-10-05T13:39:30.884Z,20.90
2022-10-05T13:42:41.512Z,20.90
2022-10-05T13:46:11.073Z,20.90
2022-10-05T13:49:19.028Z,20.90
2022-10-05T13:52:51.844Z,20.90
2022-10-05T13:55:59.926Z,20.90
2022-10-05T13:59:21.278Z,20.80
2022-10-05T14:02:38.832Z,20.90
2022-10-05T14:05:57.623Z,20.90
2022-10-05T14:09:00.008Z,20.80
2022-10-05T14:12:18.574Z,20.80
2022-10-05T14:15:33.061Z,20.80
2022-10-05T14:18:37.571Z,20.80
2022-10-05T14:21:54.748Z,20.80
2022-10-05T14:25:02.557Z,20.80
2022-10-05T14:28:37.169Z,20.80
2022-10-05T14:31:49.888Z,20.80
2022-10-05T14:35:12.997Z,20.80
2022-10-05T14:38:20.918Z,20.70
2022-10-05T14:41:27.438Z,20.70
2022-10-05T14:47:47.958Z,20.60
2022-10-05T14:50:59.236Z,20.60
2022-10-05T14:54:03.918Z,20.60
2022-10-05T14:57:25.792Z,20.50
2022-10-05T15:00:29.169Z,20.40
2022-10-05T15:03:40.766Z,20.30
2022-10-05T15:07:04.452Z,20.20
2022-10-05T15:10:29.381Z,20.30
2022-10-05T15:13:36.408Z,20.20
2022-10-05T15:16:40.677Z,20.10
2022-10-05T15:20:09.601Z,20.00
2022-10-05T15:23:27.052Z,19.80
2022-10-05T15:26:51.887Z,19.70
2022-10-05T15:30:11.517Z,19.70
2022-10-05T15:33:27.708Z,19.60
2022-10-05T15:36:43.369Z,19.50
2022-10-05T15:39:56.183Z,19.50
2022-10-05T15:43:09.008Z,19.50
2022-10-05T15:46:17.064Z,19.50
2022-10-05T15:49:19.045Z,19.40
2022-10-05T15:52:56.438Z,19.40
2022-10-05T15:56:26.740Z,19.40
2022-10-05T15:59:46.815Z,19.40
2022-10-05T16:03:23.388Z,19.30
2022-10-05T16:06:56.584Z,19.20
2022-10-05T16:10:21.378Z,19.20
2022-10-05T16:13:44.637Z,19.10
2022-10-05T16:17:21.201Z,19.10
2022-10-05T16:20:51.090Z,19.00
2022-10-05T16:24:06.336Z,18.90
2022-10-05T16:27:18.721Z,18.80
2022-10-05T16:30:23.117Z,18.70
2022-10-05T16:33:54.400Z,18.80
2022-10-05T16:37:45.369Z,18.90
2022-10-05T16:41:21.170Z,18.80
2022-10-05T16:44:42.863Z,18.80
2022-10-05T16:47:53.167Z,18.80
2022-10-05T16:51:12.858Z,18.70
2022-10-05T16:54:53.112Z,18.70
2022-10-05T16:57:57.015Z,18.80
2022-10-05T17:01:07.738Z,18.70
2022-10-05T17:04:24.178Z,18.70
2022-10-05T17:07:53.002Z,18.70
2022-10-05T17:11:00.474Z,18.60
2022-10-05T17:14:16.229Z,18.60
2022-10-05T17:18:00.316Z,18.60
2022-10-05T17:21:12.044Z,18.60
2022-10-05T17:24:24.927Z,18.50
2022-10-05T17:27:51.103Z,18.60
2022-10-05T17:30:58.728Z,18.60
2022-10-05T17:34:26.341Z,18.60
2022-10-05T17:37:28.630Z,18.60
2022-10-05T17:41:12.119Z,18.50
2022-10-05T17:44:24.928Z,18.50
2022-10-05T17:48:04.478Z,18.50
2022-10-05T17:51:46.535Z,18.50
2022-10-05T17:55:08.443Z,18.60
2022-10-05T17:58:30.158Z,18.50
2022-10-05T18:01:36.318Z,18.50
2022-10-05T18:04:40.188Z,18.50
2022-10-05T18:07:48.687Z,18.50
2022-10-05T18:11:10.299Z,18.50
2022-10-05T18:14:20.198Z,18.40
2022-10-05T18:17:43.853Z,18.50
2022-10-05T18:21:07.646Z,18.50
2022-10-05T18:24:14.092Z,18.50
2022-10-05T18:27:49.064Z,18.50
2022-10-05T18:31:02.924Z,18.50
2022-10-05T18:34:26.328Z,18.40
2022-10-05T18:38:01.957Z,18.50
2022-10-05T18:41:26.854Z,18.40
2022-10-05T18:44:35.406Z,18.50
2022-10-05T18:48:05.279Z,18.40
2022-10-05T18:51:31.158Z,18.40
2022-10-05T18:55:00.291Z,18.40
2022-10-05T18:58:14.656Z,18.40
2022-10-05T19:01:52.312Z,18.40
2022-10-05T19:08:49.826Z,18.40
2022-10-05T19:12:03.222Z,18.40
2022-10-05T19:15:22.649Z,18.40
2022-10-05T19:18:36.213Z,18.40
2022-10-05T19:21:51.664Z,18.40
2022-10-05T19:25:25.191Z,18.40
2022-10-05T19:28:33.138Z,18.40
2022-10-05T19:31:56.411Z,18.40
2022-10-05T19:35:15.790Z,18.40
2022-10-05T19:38:44.579Z,18.40
2022-10-05T19:42:25.133Z,18.40
2022-10-05T19:45:32.440Z,18.40
2022-10-05T19:48:48.436Z,18.40
2022-10-05T19:51:51.117Z,18.30
2022-10-05T19:55:14.118Z,18.40
2022-10-05T19:58:31.587Z,18.30
2022-10-05T20:01:37.910Z,18.30
2022-10-05T20:04:42.448Z,18.30
2022-10-05T20:07:44.299Z,18.30
2022-10-05T20:11:03.784Z,18.30
2022-10-05T20:14:13.743Z,18.30
2022-10-05T20:17:47.029Z,18.30
2022-10-05T20:20:49.997Z,18.30
2022-10-05T20:24:10.262Z,18.30
2022-10-05T20:27:50.573Z,18.30
2022-10-05T20:30:54.934Z,18.30
2022-10-05T20:33:59.560Z,18.30
2022-10-05T20:37:01.423Z,18.40
2022-10-05T20:40:05.047Z,18.30
2022-10-05T20:43:08.195Z,18.40
2022-10-05T20:46:11.028Z,18.30
2022-10-05T20:49:12.733Z,18.30
2022-10-05T20:52:15.785Z,18.30
2022-10-05T20:55:17.539Z,18.30
2022-10-05T20:58:19.485Z,18.20
2022-10-05T21:01:26.582Z,18.00
2022-10-05T21:04:40.841Z,17.90
2022-10-05T21:07:43.581Z,17.70
2022-10-05T21:10:45.445Z,17.60
2022-10-05T21:13:47.306Z,17.50
2022-10-05T21:16:49.319Z,17.50
2022-10-05T21:19:52.638Z,17.30
2022-10-05T21:22:54.465Z,17.30
2022-10-05T21:25:56.409Z,17.20
2022-10-05T21:28:58.731Z,17.20
2022-10-05T21:32:01.175Z,17.20
2022-10-05T21:35:03.110Z,17.10
2022-10-05T21:38:04.780Z,17.10
2022-10-05T21:41:07.702Z,17.10
2022-10-05T21:44:09.984Z,17.20
2022-10-05T21:47:12.664Z,17.20
2022-10-05T21:50:14.479Z,17.10
2022-10-05T21:53:18.432Z,17.00
2022-10-05T21:56:22.952Z,17.00
2022-10-05T21:59:28.431Z,17.00
2022-10-05T22:02:30.175Z,17.00
2022-10-05T22:05:32.338Z,17.00
2022-10-05T22:08:34.793Z,17.00
2022-10-05T22:11:36.938Z,16.90
2022-10-05T22:14:38.642Z,16.90
2022-10-05T22:17:41.180Z,16.90
2022-10-05T22:20:43.526Z,16.90
2022-10-05T22:23:46.272Z,16.90
2022-10-05T22:26:51.584Z,16.80
2022-10-05T22:29:55.297Z,16.80
2022-10-05T22:32:57.265Z,16.80
2022-10-05T22:36:00.200Z,16.80
2022-10-05T22:39:01.943Z,16.60
2022-10-05T22:42:05.811Z,16.60
2022-10-05T22:45:09.039Z,16.50
2022-10-05T22:48:11.797Z,16.40
2022-10-05T22:51:13.503Z,16.30
2022-10-05T22:54:15.950Z,16.30
2022-10-05T22:57:17.761Z,16.20
2022-10-05T23:00:24.709Z,16.20
2022-10-05T23:03:30.132Z,16.20
2022-10-05T23:06:31.947Z,16.20
2022-10-05T23:09:33.984Z,16.20
2022-10-05T23:12:59.675Z,16.20
2022-10-05T23:16:13.359Z,16.20
2022-10-05T23:19:15.342Z,16.10
2022-10-05T23:22:17.247Z,16.10
2022-10-05T23:25:19.359Z,16.10
2022-10-05T23:28:21.770Z,16.10
2022-10-05T23:31:30.753Z,16.10
2022-10-05T23:34:32.457Z,16.00
2022-10-05T23:37:38.300Z,16.00
2022-10-05T23:40:40.209Z,16.00
2022-10-05T23:43:42.607Z,15.90
2022-10-05T23:46:44.615Z,15.90
2022-10-05T23:49:46.392Z,15.90
2022-10-05T23:52:48.077Z,15.80
2022-10-05T23:55:53.693Z,15.80
2022-10-05T23:58:55.527Z,15.80
